Time;durP1;ratioP1;P1;durP2;ratioP2;P2;SDS_P1;SDS_P2;PMS_P1;PMS_P2;Temp;Humidity;BMP_temperature;BMP_pressure;BME280_temperature;BME280_humidity;BME280_pressure;Samples;Min_cycle;Max_cycle;Signal;HPM_P1;HPM_P2
2022/04/08 00:00:38;;;;;;;;;;;18.70;54.00;;;;;;5007151;28;20371;-53
2022/04/08 00:03:03;;;;;;;;;;;18.70;53.90;;;;;;5007202;28;20052;-51
2022/04/08 00:05:29;;;;;;;;;;;18.70;53.90;;;;;;5007476;28;19921;-50
2022/04/08 00:07:54;;;;;;;;;;;18.70;53.90;;;;;;5007361;28;20378;-53
2022/04/08 00:10:20;;;;;;;;;;;18.60;53.90;;;;;;5007368;28;19948;-52
2022/04/08 00:12:45;;;;;;;;;;;18.60;53.90;;;;;;5007184;28;19914;-52
2022/04/08 00:15:11;;;;;;;;;;;18.70;53.90;;;;;;5006959;28;19979;-52
2022/04/08 00:17:36;;;;;;;;;;;18.70;53.90;;;;;;5007108;28;19925;-53
2022/04/08 00:20:02;;;;;;;;;;;18.60;53.80;;;;;;5007043;28;19914;-52
2022/04/08 00:22:27;;;;;;;;;;;18.60;53.80;;;;;;5006888;28;20375;-51
2022/04/08 00:24:53;;;;;;;;;;;18.60;53.80;;;;;;5006753;28;19917;-52
2022/04/08 00:27:18;;;;;;;;;;;18.60;53.90;;;;;;5007117;28;19924;-51
2022/04/08 00:29:44;;;;;;;;;;;18.60;53.80;;;;;;5006383;28;19920;-50
2022/04/08 00:32:09;;;;;;;;;;;18.60;53.80;;;;;;5019685;22;20209;-62
2022/04/08 00:34:35;;;;;;;;;;;18.60;53.70;;;;;;5003705;28;19913;-61
2022/04/08 00:37:00;;;;;;;;;;;18.60;53.70;;;;;;5005280;28;20747;-63
2022/04/08 00:39:26;;;;;;;;;;;18.60;53.70;;;;;;5004796;28;19914;-63
2022/04/08 00:41:51;;;;;;;;;;;18.60;53.70;;;;;;5006134;28;19920;-61
2022/04/08 00:44:17;;;;;;;;;;;18.60;53.70;;;;;;5004721;28;19928;-63
2022/04/08 00:46:43;;;;;;;;;;;18.50;53.60;;;;;;4987902;28;20273;-63
2022/04/08 00:49:09;;;;;;;;;;;18.50;53.60;;;;;;4986991;28;19914;-62
2022/04/08 00:51:34;;;;;;;;;;;18.60;53.60;;;;;;4987136;28;20385;-62
2022/04/08 00:54:00;;;;;;;;;;;18.60;53.60;;;;;;4987622;28;20298;-61
2022/04/08 00:56:26;;;;;;;;;;;18.60;53.50;;;;;;4987890;28;19918;-62
2022/04/08 00:58:52;;;;;;;;;;;18.50;53.60;;;;;;4986540;28;19914;-61
2022/04/08 01:01:18;;;;;;;;;;;18.50;53.50;;;;;;4987269;28;19918;-63
2022/04/08 01:03:44;;;;;;;;;;;18.50;53.50;;;;;;4987895;28;19924;-62
2022/04/08 01:06:09;;;;;;;;;;;18.50;53.50;;;;;;5004670;28;20306;-62
2022/04/08 01:08:35;;;;;;;;;;;18.50;53.40;;;;;;4985511;28;20437;-62
2022/04/08 01:11:01;;;;;;;;;;;18.40;53.40;;;;;;4987180;28;19918;-62
2022/04/08 01:13:26;;;;;;;;;;;18.50;53.50;;;;;;5004341;28;19921;-61
2022/04/08 01:15:52;;;;;;;;;;;18.50;53.40;;;;;;5004929;28;19918;-63
2022/04/08 01:18:17;;;;;;;;;;;18.50;53.40;;;;;;5004098;28;19921;-62
2022/04/08 01:20:43;;;;;;;;;;;18.40;53.40;;;;;;4985113;28;20383;-62
2022/04/08 01:23:08;;;;;;;;;;;18.40;53.40;;;;;;4986808;28;20011;-62
2022/04/08 01:25:33;;;;;;;;;;;18.50;53.40;;;;;;5004752;28;19924;-62
2022/04/08 01:27:59;;;;;;;;;;;18.50;53.30;;;;;;5004557;28;19914;-62
2022/04/08 01:30:24;;;;;;;;;;;18.50;53.30;;;;;;4985682;28;20379;-63
2022/04/08 01:32:50;;;;;;;;;;;18.40;53.30;;;;;;5004613;28;19956;-63
2022/04/08 01:35:15;;;;;;;;;;;18.40;53.30;;;;;;5003976;28;19956;-63
2022/04/08 01:37:41;;;;;;;;;;;18.40;53.30;;;;;;5004276;28;19921;-61
2022/04/08 01:40:07;;;;;;;;;;;18.40;53.30;;;;;;5003746;28;20031;-61
2022/04/08 01:42:32;;;;;;;;;;;18.40;53.20;;;;;;4985778;28;19914;-63
2022/04/08 01:44:58;;;;;;;;;;;18.40;53.30;;;;;;5004003;28;20268;-63
2022/04/08 01:47:23;;;;;;;;;;;18.40;53.20;;;;;;5003658;28;19913;-63
2022/04/08 01:49:49;;;;;;;;;;;18.40;53.30;;;;;;5002891;28;19917;-62
2022/04/08 01:52:14;;;;;;;;;;;18.40;53.20;;;;;;5004311;28;19914;-63
2022/04/08 01:54:40;;;;;;;;;;;18.40;53.10;;;;;;5003997;28;20417;-64
2022/04/08 01:57:05;;;;;;;;;;;18.40;53.10;;;;;;4986324;28;19914;-63
2022/04/08 01:59:31;;;;;;;;;;;18.40;53.00;;;;;;4984952;28;19933;-63
2022/04/08 02:01:59;;;;;;;;;;;18.40;53.00;;;;;;5004150;28;19963;-63
2022/04/08 02:04:25;;;;;;;;;;;18.40;52.90;;;;;;5003271;28;20445;-63
2022/04/08 02:06:50;;;;;;;;;;;18.40;52.90;;;;;;4970609;28;19941;-64
2022/04/08 02:09:16;;;;;;;;;;;18.40;53.00;;;;;;5003019;28;19920;-62
2022/04/08 02:11:43;;;;;;;;;;;18.30;53.00;;;;;;4986676;28;19968;-62
2022/04/08 02:14:08;;;;;;;;;;;18.30;53.00;;;;;;4986701;28;20280;-63
2022/04/08 02:16:34;;;;;;;;;;;18.30;53.10;;;;;;5003480;28;19963;-63
2022/04/08 02:19:00;;;;;;;;;;;18.30;53.70;;;;;;5002162;28;19957;-63
2022/04/08 02:21:25;;;;;;;;;;;18.30;53.20;;;;;;5003405;28;19961;-63
2022/04/08 02:23:50;;;;;;;;;;;18.30;53.10;;;;;;5003823;28;19956;-63
2022/04/08 02:26:16;;;;;;;;;;;18.30;53.20;;;;;;4986388;28;19925;-63
2022/04/08 02:28:42;;;;;;;;;;;18.30;53.20;;;;;;5001789;28;19996;-63
2022/04/08 02:31:07;;;;;;;;;;;18.20;53.20;;;;;;4983597;28;19920;-63
2022/04/08 02:33:33;;;;;;;;;;;18.20;53.30;;;;;;4982966;28;19975;-61
2022/04/08 02:35:58;;;;;;;;;;;18.20;53.30;;;;;;5001716;28;19948;-61
2022/04/08 02:38:24;;;;;;;;;;;18.20;53.30;;;;;;4985071;28;19917;-63
2022/04/08 02:40:49;;;;;;;;;;;18.20;53.40;;;;;;5003477;28;19976;-62
2022/04/08 02:43:15;;;;;;;;;;;18.20;53.30;;;;;;4983407;28;19921;-62
2022/04/08 02:45:40;;;;;;;;;;;18.10;53.30;;;;;;4998894;28;20385;-62
2022/04/08 02:48:06;;;;;;;;;;;18.10;53.30;;;;;;4997430;28;19960;-61
2022/04/08 02:50:31;;;;;;;;;;;18.20;53.30;;;;;;4982264;28;19917;-61
2022/04/08 02:52:56;;;;;;;;;;;18.10;53.30;;;;;;4998844;28;19924;-63
2022/04/08 02:55:22;;;;;;;;;;;18.10;53.30;;;;;;4982524;28;19913;-62
2022/04/08 02:57:48;;;;;;;;;;;18.10;53.30;;;;;;4961137;28;19922;-62
2022/04/08 03:00:14;;;;;;;;;;;18.10;53.30;;;;;;5000761;28;19967;-62
2022/04/08 03:02:40;;;;;;;;;;;18.10;53.30;;;;;;4999320;28;19914;-62
2022/04/08 03:05:06;;;;;;;;;;;18.10;53.30;;;;;;5002795;28;19921;-63
2022/04/08 03:07:32;;;;;;;;;;;18.00;53.30;;;;;;4974034;28;19913;-61
2022/04/08 03:09:57;;;;;;;;;;;18.00;53.30;;;;;;5000444;28;19924;-61
2022/04/08 03:12:23;;;;;;;;;;;18.10;53.20;;;;;;5000860;28;19924;-61
2022/04/08 03:14:48;;;;;;;;;;;18.20;53.00;;;;;;5002493;28;20393;-62
2022/04/08 03:17:14;;;;;;;;;;;18.20;52.90;;;;;;4973969;28;19918;-62
2022/04/08 03:19:39;;;;;;;;;;;18.10;52.90;;;;;;4967605;28;19918;-61
2022/04/08 03:22:06;;;;;;;;;;;18.10;52.90;;;;;;4992551;28;19914;-63
2022/04/08 03:24:31;;;;;;;;;;;18.10;53.10;;;;;;4969253;28;19918;-63
2022/04/08 03:26:57;;;;;;;;;;;18.10;53.30;;;;;;4983977;28;19920;-62
2022/04/08 03:29:23;;;;;;;;;;;18.20;53.30;;;;;;5002055;28;20432;-64
2022/04/08 03:31:49;;;;;;;;;;;18.30;53.10;;;;;;4982604;28;19925;-63
2022/04/08 03:34:14;;;;;;;;;;;18.30;53.00;;;;;;4985126;28;19922;-61
2022/04/08 03:36:39;;;;;;;;;;;18.30;52.80;;;;;;4984975;28;19914;-63
2022/04/08 03:39:05;;;;;;;;;;;18.40;52.70;;;;;;4985592;28;20378;-63
2022/04/08 03:41:30;;;;;;;;;;;18.40;53.30;;;;;;4974552;28;19920;-62
2022/04/08 03:43:56;;;;;;;;;;;18.40;52.60;;;;;;4969471;28;19944;-62
2022/04/08 03:46:21;;;;;;;;;;;18.50;52.50;;;;;;4985246;28;19918;-62
2022/04/08 03:48:47;;;;;;;;;;;18.50;52.50;;;;;;4984230;28;20294;-61
2022/04/08 03:51:12;;;;;;;;;;;18.50;52.30;;;;;;5002472;28;19968;-62
2022/04/08 03:53:38;;;;;;;;;;;18.50;52.30;;;;;;5003568;28;19917;-67
2022/04/08 03:56:04;;;;;;;;;;;18.50;52.20;;;;;;4988492;28;19921;-61
2022/04/08 03:58:30;;;;;;;;;;;18.60;52.10;;;;;;4991845;28;19917;-63
2022/04/08 04:00:56;;;;;;;;;;;18.60;52.00;;;;;;5003319;28;20302;-63
2022/04/08 04:03:21;;;;;;;;;;;18.70;51.90;;;;;;5000121;28;19975;-61
2022/04/08 04:05:47;;;;;;;;;;;18.70;51.80;;;;;;5003595;28;19922;-63
2022/04/08 04:08:18;;;;;;;;;;;18.80;51.70;;;;;;5003919;28;19918;-62
2022/04/08 04:10:47;;;;;;;;;;;18.80;51.70;;;;;;4986303;28;19917;-62
2022/04/08 04:13:12;;;;;;;;;;;18.80;51.60;;;;;;4985854;28;20464;-62
2022/04/08 04:15:38;;;;;;;;;;;18.80;51.60;;;;;;4988154;28;19929;-63
2022/04/08 04:18:03;;;;;;;;;;;18.80;51.50;;;;;;5004005;28;19937;-61
2022/04/08 04:20:29;;;;;;;;;;;18.80;52.10;;;;;;4986557;28;20573;-64
2022/04/08 04:22:54;;;;;;;;;;;18.80;51.50;;;;;;4986371;28;19937;-62
2022/04/08 04:25:20;;;;;;;;;;;18.80;51.40;;;;;;5004200;28;19964;-62
2022/04/08 04:27:45;;;;;;;;;;;18.90;51.40;;;;;;4985372;28;19918;-63
2022/04/08 04:30:11;;;;;;;;;;;18.90;51.40;;;;;;4986031;28;19913;-62
2022/04/08 04:32:36;;;;;;;;;;;18.90;51.40;;;;;;5005188;28;19933;-62
2022/04/08 04:35:06;;;;;;;;;;;18.90;51.40;;;;;;5004983;28;20020;-61
2022/04/08 04:37:32;;;;;;;;;;;18.90;51.50;;;;;;5003660;28;20451;-61
2022/04/08 04:39:58;;;;;;;;;;;18.90;51.60;;;;;;5003322;28;19921;-60
2022/04/08 04:42:42;;;;;;;;;;;18.90;51.80;;;;;;5004394;28;20542;-60
2022/04/08 04:45:08;;;;;;;;;;;19.00;51.80;;;;;;4994972;28;19945;-61
2022/04/08 04:47:33;;;;;;;;;;;19.00;52.00;;;;;;4987144;28;19918;-61
2022/04/08 04:49:59;;;;;;;;;;;19.00;52.00;;;;;;5003343;28;19917;-61
2022/04/08 04:52:24;;;;;;;;;;;19.00;52.00;;;;;;4986700;28;19913;-60
2022/04/08 04:54:49;;;;;;;;;;;19.00;52.00;;;;;;5004763;28;19918;-62
2022/04/08 04:57:15;;;;;;;;;;;19.00;52.10;;;;;;5003719;28;20619;-61
2022/04/08 04:59:41;;;;;;;;;;;19.00;52.10;;;;;;5003383;28;19980;-61
2022/04/08 05:02:06;;;;;;;;;;;18.90;52.00;;;;;;5004686;28;19948;-61
2022/04/08 05:04:32;;;;;;;;;;;18.90;52.10;;;;;;4986796;28;19925;-61
2022/04/08 05:06:57;;;;;;;;;;;18.90;52.00;;;;;;5004603;28;19922;-61
2022/04/08 05:09:23;;;;;;;;;;;18.90;52.00;;;;;;4986362;28;19917;-60
2022/04/08 05:11:48;;;;;;;;;;;18.90;52.60;;;;;;5004195;28;20517;-61
2022/04/08 05:14:13;;;;;;;;;;;18.90;51.90;;;;;;5004164;28;19918;-61
2022/04/08 05:16:39;;;;;;;;;;;18.90;53.10;;;;;;4986025;28;19918;-60
2022/04/08 05:19:04;;;;;;;;;;;18.90;53.90;;;;;;4986425;28;20286;-61
2022/04/08 05:21:30;;;;;;;;;;;18.90;54.40;;;;;;5002741;28;19917;-61
2022/04/08 05:23:56;;;;;;;;;;;18.90;54.70;;;;;;4986127;28;19925;-61
2022/04/08 05:26:21;;;;;;;;;;;18.90;54.90;;;;;;5000085;28;20509;-61
2022/04/08 05:28:46;;;;;;;;;;;18.90;55.00;;;;;;5000750;28;19953;-61
2022/04/08 05:31:12;;;;;;;;;;;18.90;55.00;;;;;;5002461;28;19940;-61
2022/04/08 05:33:37;;;;;;;;;;;18.80;54.80;;;;;;5003214;28;19926;-61
2022/04/08 05:36:03;;;;;;;;;;;18.80;54.70;;;;;;5002920;28;20363;-61
2022/04/08 05:38:28;;;;;;;;;;;18.80;54.50;;;;;;5001679;28;19921;-61
2022/04/08 05:40:54;;;;;;;;;;;18.70;54.10;;;;;;5003042;28;19925;-61
2022/04/08 05:43:19;;;;;;;;;;;18.70;53.70;;;;;;5003317;28;19933;-61
2022/04/08 05:45:45;;;;;;;;;;;18.60;53.70;;;;;;5004046;28;19972;-61
2022/04/08 05:48:10;;;;;;;;;;;18.60;53.50;;;;;;4986645;28;19917;-60
2022/04/08 05:50:36;;;;;;;;;;;18.60;53.60;;;;;;5003181;28;20476;-61
2022/04/08 05:53:01;;;;;;;;;;;18.50;53.50;;;;;;5003570;28;19924;-61
2022/04/08 05:55:27;;;;;;;;;;;18.50;53.40;;;;;;4985791;28;19939;-61
2022/04/08 05:57:58;;;;;;;;;;;18.60;53.50;;;;;;5003432;28;19921;-60
2022/04/08 06:00:23;;;;;;;;;;;18.60;53.40;;;;;;5002409;28;19913;-61
2022/04/08 06:02:49;;;;;;;;;;;18.70;53.50;;;;;;5003379;28;19924;-60
2022/04/08 06:05:18;;;;;;;;;;;18.70;53.40;;;;;;5002924;28;19921;-61
2022/04/08 06:07:47;;;;;;;;;;;18.70;53.50;;;;;;5003033;28;20037;-61
2022/04/08 06:10:13;;;;;;;;;;;18.70;53.50;;;;;;4984143;28;20165;-61
2022/04/08 06:12:38;;;;;;;;;;;18.70;53.50;;;;;;4985643;28;19984;-66
2022/04/08 06:15:04;;;;;;;;;;;18.70;53.60;;;;;;5003719;28;19917;-61
2022/04/08 06:17:39;;;;;;;;;;;18.70;53.50;;;;;;4985036;28;20067;-60
2022/04/08 06:20:09;;;;;;;;;;;18.70;53.50;;;;;;4984581;28;20001;-60
2022/04/08 06:22:35;;;;;;;;;;;18.70;53.50;;;;;;5002934;28;19921;-60
2022/04/08 06:25:01;;;;;;;;;;;18.70;53.50;;;;;;4985187;28;19921;-61
2022/04/08 06:27:26;;;;;;;;;;;18.70;53.30;;;;;;5002921;28;19924;-61
2022/04/08 06:29:51;;;;;;;;;;;18.70;53.50;;;;;;5001574;28;20098;-61
2022/04/08 06:32:17;;;;;;;;;;;18.70;53.40;;;;;;5002739;28;19918;-61
2022/04/08 06:34:42;;;;;;;;;;;18.70;53.40;;;;;;5039391;23;20312;-67
2022/04/08 06:37:08;;;;;;;;;;;18.70;53.40;;;;;;5046654;28;19917;-66
2022/04/08 06:39:33;;;;;;;;;;;18.70;53.50;;;;;;5044779;28;19959;-66
2022/04/08 06:41:59;;;;;;;;;;;18.70;53.50;;;;;;5047068;28;20411;-66
2022/04/08 06:44:24;;;;;;;;;;;18.70;53.40;;;;;;5047336;28;19921;-67
2022/04/08 06:46:50;;;;;;;;;;;18.70;53.50;;;;;;5048156;28;19940;-65
2022/04/08 06:49:19;;;;;;;;;;;18.70;53.50;;;;;;5047036;28;19959;-67
2022/04/08 06:51:44;;;;;;;;;;;18.60;53.40;;;;;;5048095;28;19944;-68
2022/04/08 06:54:10;;;;;;;;;;;18.60;53.40;;;;;;5047044;28;19947;-67
2022/04/08 06:56:35;;;;;;;;;;;18.60;53.40;;;;;;5030431;28;19909;-68
2022/04/08 06:59:01;;;;;;;;;;;18.60;53.40;;;;;;5046186;28;20543;-68
2022/04/08 07:01:27;;;;;;;;;;;18.60;53.40;;;;;;5048514;28;19975;-67
2022/04/08 07:03:52;;;;;;;;;;;18.60;53.40;;;;;;5050561;28;19913;-67
2022/04/08 07:06:18;;;;;;;;;;;18.60;53.30;;;;;;5051076;28;19920;-67
2022/04/08 07:08:43;;;;;;;;;;;18.60;53.40;;;;;;5050548;28;19913;-66
2022/04/08 07:11:09;;;;;;;;;;;18.70;53.50;;;;;;5051228;28;20338;-67
2022/04/08 07:13:37;;;;;;;;;;;18.60;53.40;;;;;;5051441;28;19921;-67
2022/04/08 07:16:03;;;;;;;;;;;18.60;53.50;;;;;;5051514;28;20307;-67
2022/04/08 07:18:28;;;;;;;;;;;18.60;53.50;;;;;;5050873;28;19909;-68
2022/04/08 07:20:53;;;;;;;;;;;18.60;53.50;;;;;;5049166;28;19920;-68
2022/04/08 07:23:19;;;;;;;;;;;18.70;53.50;;;;;;5047169;28;19982;-67
2022/04/08 07:25:44;;;;;;;;;;;18.60;53.50;;;;;;5050813;28;20276;-67
2022/04/08 07:28:10;;;;;;;;;;;18.60;53.40;;;;;;5051465;28;19909;-67
2022/04/08 07:30:35;;;;;;;;;;;18.70;53.40;;;;;;5050198;28;19917;-68
2022/04/08 07:33:03;;;;;;;;;;;18.70;53.40;;;;;;5051582;28;19909;-67
2022/04/08 07:35:30;;;;;;;;;;;18.60;53.90;;;;;;5051562;28;19924;-68
2022/04/08 07:37:56;;;;;;;;;;;18.60;53.30;;;;;;5050704;28;19917;-68
2022/04/08 07:40:22;;;;;;;;;;;18.60;53.20;;;;;;5052261;28;20590;-67
2022/04/08 07:42:48;;;;;;;;;;;18.70;53.20;;;;;;5055441;28;19909;-67
2022/04/08 07:45:13;;;;;;;;;;;18.70;53.10;;;;;;5055642;28;20342;-68
2022/04/08 07:47:39;;;;;;;;;;;18.70;53.00;;;;;;5056017;28;19915;-67
2022/04/08 07:50:05;;;;;;;;;;;18.70;52.90;;;;;;5051237;28;19915;-66
2022/04/08 07:52:31;;;;;;;;;;;18.70;52.90;;;;;;5050810;28;19913;-68
2022/04/08 07:54:56;;;;;;;;;;;18.70;52.80;;;;;;5051190;28;19920;-68
2022/04/08 07:57:22;;;;;;;;;;;18.70;52.80;;;;;;5052013;28;20486;-68
2022/04/08 07:59:47;;;;;;;;;;;18.70;52.80;;;;;;5051070;28;19909;-68
2022/04/08 08:02:13;;;;;;;;;;;18.70;52.90;;;;;;5051098;28;19951;-67
2022/04/08 08:04:39;;;;;;;;;;;18.70;52.90;;;;;;5055041;28;19916;-67
2022/04/08 08:07:04;;;;;;;;;;;18.70;52.80;;;;;;5051099;28;20690;-68
2022/04/08 08:09:29;;;;;;;;;;;18.70;52.70;;;;;;5049579;28;20552;-68
2022/04/08 08:11:55;;;;;;;;;;;18.70;52.80;;;;;;5049888;28;19917;-68
2022/04/08 08:14:20;;;;;;;;;;;18.70;52.70;;;;;;5049863;28;19908;-67
2022/04/08 08:16:46;;;;;;;;;;;18.80;52.70;;;;;;5049864;28;19948;-67
2022/04/08 08:19:11;;;;;;;;;;;18.70;52.50;;;;;;5048996;28;19916;-66
2022/04/08 08:21:37;;;;;;;;;;;18.80;52.50;;;;;;5049076;28;19995;-67
2022/04/08 08:24:02;;;;;;;;;;;18.80;52.60;;;;;;5049728;28;19916;-67
2022/04/08 08:26:29;;;;;;;;;;;18.80;52.50;;;;;;5050038;28;19909;-67
2022/04/08 08:28:55;;;;;;;;;;;18.80;52.40;;;;;;5047681;28;19982;-67
2022/04/08 08:31:21;;;;;;;;;;;18.80;52.40;;;;;;5049320;28;20008;-67
2022/04/08 08:33:47;;;;;;;;;;;18.80;52.40;;;;;;5049301;28;19917;-67
2022/04/08 08:36:13;;;;;;;;;;;18.80;52.40;;;;;;5048584;28;19913;-67
2022/04/08 08:38:38;;;;;;;;;;;18.80;52.40;;;;;;5050824;28;19912;-68
2022/04/08 08:41:03;;;;;;;;;;;18.80;52.40;;;;;;5046451;28;20376;-68
2022/04/08 08:43:29;;;;;;;;;;;18.80;52.30;;;;;;5047210;28;19958;-67
2022/04/08 08:45:55;;;;;;;;;;;18.80;52.20;;;;;;5049528;28;19916;-67
2022/04/08 08:48:21;;;;;;;;;;;18.90;52.20;;;;;;5050825;28;19913;-68
2022/04/08 08:50:47;;;;;;;;;;;18.90;52.10;;;;;;5047611;28;19923;-68
2022/04/08 08:53:15;;;;;;;;;;;18.90;52.20;;;;;;5049912;28;20385;-68
2022/04/08 08:55:40;;;;;;;;;;;18.90;52.80;;;;;;5047980;28;19913;-67
2022/04/08 08:58:07;;;;;;;;;;;18.90;52.20;;;;;;5049494;28;20030;-67
2022/04/08 09:00:32;;;;;;;;;;;18.90;52.20;;;;;;5045530;28;19956;-66
2022/04/08 09:02:57;;;;;;;;;;;18.90;52.10;;;;;;5047937;28;19962;-67
2022/04/08 09:05:23;;;;;;;;;;;18.90;52.10;;;;;;5048295;28;19931;-67
2022/04/08 09:07:58;;;;;;;;;;;18.90;52.20;;;;;;5047766;28;19913;-67
2022/04/08 09:10:25;;;;;;;;;;;18.90;52.10;;;;;;5045648;28;19920;-67
2022/04/08 09:12:54;;;;;;;;;;;18.90;52.20;;;;;;5047638;28;19913;-68
2022/04/08 09:15:20;;;;;;;;;;;18.90;52.10;;;;;;5048751;28;19917;-66
2022/04/08 09:17:45;;;;;;;;;;;18.90;52.10;;;;;;5046109;28;19917;-66
2022/04/08 09:20:12;;;;;;;;;;;18.90;52.00;;;;;;5045775;28;19924;-68
2022/04/08 09:22:37;;;;;;;;;;;19.00;52.20;;;;;;5049422;28;19969;-68
2022/04/08 09:25:10;;;;;;;;;;;18.90;52.10;;;;;;5046676;28;20523;-68
2022/04/08 09:27:39;;;;;;;;;;;18.90;52.10;;;;;;5047102;28;19940;-68
2022/04/08 09:30:04;;;;;;;;;;;18.90;52.10;;;;;;5043929;28;19920;-65
2022/04/08 09:32:30;;;;;;;;;;;19.00;52.10;;;;;;5048066;28;20651;-67
2022/04/08 09:34:55;;;;;;;;;;;19.00;52.10;;;;;;5046164;28;19920;-66
2022/04/08 09:37:21;;;;;;;;;;;19.00;52.10;;;;;;5045949;28;19920;-68
2022/04/08 09:40:00;;;;;;;;;;;18.90;52.00;;;;;;5044236;28;20162;-69
2022/04/08 09:42:42;;;;;;;;;;;19.00;52.00;;;;;;5046134;28;19974;-68
2022/04/08 09:45:09;;;;;;;;;;;18.90;51.90;;;;;;5047191;28;19927;-67
2022/04/08 09:47:34;;;;;;;;;;;19.00;52.60;;;;;;5046101;28;19920;-68
2022/04/08 09:50:00;;;;;;;;;;;19.00;52.00;;;;;;5046666;28;19920;-67
2022/04/08 09:52:25;;;;;;;;;;;19.00;51.90;;;;;;5046121;28;20334;-67
2022/04/08 09:54:51;;;;;;;;;;;19.00;51.90;;;;;;5044604;28;19944;-68
2022/04/08 09:57:18;;;;;;;;;;;19.00;51.90;;;;;;5044475;28;19939;-66
2022/04/08 09:59:47;;;;;;;;;;;19.00;51.90;;;;;;5045091;28;19913;-67
2022/04/08 10:02:12;;;;;;;;;;;19.00;51.90;;;;;;5045275;28;19917;-67
2022/04/08 10:04:38;;;;;;;;;;;19.00;51.80;;;;;;5045886;28;19921;-68
2022/04/08 10:07:05;;;;;;;;;;;19.00;51.70;;;;;;5044088;28;19913;-66
2022/04/08 10:09:31;;;;;;;;;;;19.00;51.80;;;;;;5044935;28;19944;-66
2022/04/08 10:11:57;;;;;;;;;;;19.00;51.80;;;;;;5045806;28;20286;-68
2022/04/08 10:14:25;;;;;;;;;;;19.00;51.70;;;;;;5046355;28;19913;-68
2022/04/08 10:16:53;;;;;;;;;;;19.10;51.70;;;;;;5043576;28;19913;-67
2022/04/08 10:19:20;;;;;;;;;;;19.10;51.70;;;;;;5026798;28;20265;-68
2022/04/08 10:21:53;;;;;;;;;;;19.10;51.70;;;;;;5045469;28;19913;-68
2022/04/08 10:24:22;;;;;;;;;;;19.10;51.70;;;;;;5045032;28;19953;-68
2022/04/08 10:26:54;;;;;;;;;;;19.10;51.60;;;;;;5044972;28;19927;-68
2022/04/08 10:29:19;;;;;;;;;;;19.10;51.60;;;;;;5043221;28;19916;-67
2022/04/08 10:31:53;;;;;;;;;;;19.10;51.60;;;;;;5045406;28;19913;-67
2022/04/08 10:34:19;;;;;;;;;;;19.10;51.50;;;;;;5044589;28;20002;-68
2022/04/08 10:36:44;;;;;;;;;;;19.10;51.50;;;;;;5045009;28;20768;-68
2022/04/08 10:39:12;;;;;;;;;;;19.10;51.50;;;;;;5044573;28;19923;-68
2022/04/08 10:41:46;;;;;;;;;;;19.10;51.50;;;;;;5046634;28;19919;-68
2022/04/08 10:44:12;;;;;;;;;;;19.10;51.40;;;;;;5045353;28;20423;-69
2022/04/08 10:46:47;;;;;;;;;;;19.10;51.40;;;;;;5045907;28;19916;-67
2022/04/08 10:49:12;;;;;;;;;;;19.10;51.40;;;;;;5041868;28;19917;-68
2022/04/08 10:51:43;;;;;;;;;;;19.10;51.40;;;;;;5045471;28;19923;-67
2022/04/08 10:54:08;;;;;;;;;;;19.10;51.40;;;;;;5044298;28;20303;-68
2022/04/08 10:56:36;;;;;;;;;;;19.10;51.30;;;;;;5045923;28;19924;-68
2022/04/08 10:59:02;;;;;;;;;;;19.10;51.40;;;;;;5044732;28;19947;-68
2022/04/08 11:01:27;;;;;;;;;;;19.10;51.40;;;;;;5046288;28;20307;-68
2022/04/08 11:03:56;;;;;;;;;;;19.10;51.40;;;;;;5046318;28;19943;-68
2022/04/08 11:06:22;;;;;;;;;;;19.10;51.40;;;;;;5045819;28;19913;-68
2022/04/08 11:08:47;;;;;;;;;;;19.10;51.50;;;;;;5043443;28;20288;-68
2022/04/08 11:11:13;;;;;;;;;;;19.10;51.50;;;;;;5045854;28;19924;-68
2022/04/08 11:13:44;;;;;;;;;;;19.10;51.60;;;;;;5046212;28;20092;-68
2022/04/08 11:16:09;;;;;;;;;;;19.00;51.60;;;;;;5050204;28;20502;-68
2022/04/08 11:18:35;;;;;;;;;;;19.10;51.60;;;;;;5049483;28;19932;-69
2022/04/08 11:21:00;;;;;;;;;;;19.00;51.70;;;;;;5051549;28;20299;-68
2022/04/08 11:23:26;;;;;;;;;;;19.00;51.80;;;;;;5049258;28;19924;-68
2022/04/08 11:25:52;;;;;;;;;;;19.00;51.80;;;;;;5048679;28;19917;-68
2022/04/08 11:28:17;;;;;;;;;;;19.00;51.80;;;;;;5049060;28;20565;-68
2022/04/08 11:30:43;;;;;;;;;;;19.00;52.00;;;;;;5047325;28;20449;-68
2022/04/08 11:33:15;;;;;;;;;;;19.00;51.90;;;;;;5049188;28;19913;-67
2022/04/08 11:35:40;;;;;;;;;;;19.00;51.90;;;;;;5047483;28;20079;-68
2022/04/08 11:38:12;;;;;;;;;;;19.00;51.80;;;;;;5048494;28;19923;-68
2022/04/08 11:40:37;;;;;;;;;;;19.00;51.70;;;;;;5021857;28;19917;-67
2022/04/08 11:43:03;;;;;;;;;;;19.00;51.60;;;;;;5050734;28;20292;-68
2022/04/08 11:45:28;;;;;;;;;;;19.00;52.10;;;;;;5050989;28;19996;-69
2022/04/08 11:47:54;;;;;;;;;;;19.00;51.40;;;;;;5047813;28;20077;-68
2022/04/08 11:50:23;;;;;;;;;;;19.10;51.40;;;;;;5048307;28;19924;-67
2022/04/08 11:52:52;;;;;;;;;;;19.10;51.40;;;;;;5049547;28;19920;-68
2022/04/08 11:55:21;;;;;;;;;;;19.10;51.40;;;;;;5050380;28;19952;-68
2022/04/08 11:57:46;;;;;;;;;;;19.10;51.40;;;;;;5050149;28;19912;-68
2022/04/08 12:00:12;;;;;;;;;;;19.10;51.30;;;;;;5054195;28;19988;-69
2022/04/08 12:02:37;;;;;;;;;;;19.10;51.20;;;;;;5056571;28;19919;-67
2022/04/08 12:05:03;;;;;;;;;;;19.10;51.20;;;;;;5069153;28;20012;-66
2022/04/08 12:07:29;;;;;;;;;;;19.10;51.20;;;;;;5064978;28;19917;-68
2022/04/08 12:09:55;;;;;;;;;;;19.10;51.20;;;;;;5051869;28;19919;-68
2022/04/08 12:12:28;;;;;;;;;;;19.10;51.10;;;;;;5054650;28;19916;-67
2022/04/08 12:14:53;;;;;;;;;;;19.10;51.10;;;;;;5053315;28;19983;-67
2022/04/08 12:17:19;;;;;;;;;;;19.10;51.10;;;;;;5054100;28;19923;-68
2022/04/08 12:19:47;;;;;;;;;;;19.10;51.10;;;;;;5042567;28;19913;-68
2022/04/08 12:22:13;;;;;;;;;;;19.10;51.00;;;;;;5053958;28;19920;-67
2022/04/08 12:24:40;;;;;;;;;;;19.10;51.10;;;;;;5051859;28;20408;-67
2022/04/08 12:27:12;;;;;;;;;;;19.10;51.00;;;;;;5047494;28;19917;-67
2022/04/08 12:29:39;;;;;;;;;;;19.10;51.10;;;;;;5045784;28;19948;-68
2022/04/08 12:32:11;;;;;;;;;;;19.10;51.00;;;;;;5046148;28;19920;-67
2022/04/08 12:34:36;;;;;;;;;;;19.10;51.00;;;;;;5061252;22;19909;-58
2022/04/08 12:37:01;;;;;;;;;;;19.10;51.00;;;;;;5026284;28;19929;-54
2022/04/08 12:39:27;;;;;;;;;;;19.10;50.90;;;;;;5026025;28;20301;-56
2022/04/08 12:41:53;;;;;;;;;;;19.10;50.90;;;;;;5026559;28;19963;-55
2022/04/08 12:44:19;;;;;;;;;;;19.10;50.90;;;;;;5024158;28;20397;-55
2022/04/08 12:46:44;;;;;;;;;;;19.10;50.80;;;;;;5025328;28;19913;-53
2022/04/08 12:49:10;;;;;;;;;;;19.10;50.90;;;;;;5025806;28;20398;-54
2022/04/08 12:51:35;;;;;;;;;;;19.20;50.90;;;;;;5025738;28;19983;-57
2022/04/08 12:54:01;;;;;;;;;;;19.20;50.90;;;;;;5026187;28;19923;-57
2022/04/08 12:56:26;;;;;;;;;;;19.20;50.90;;;;;;5025573;28;20050;-54
2022/04/08 12:58:52;;;;;;;;;;;19.10;50.80;;;;;;5025632;28;20288;-56
2022/04/08 13:01:17;;;;;;;;;;;19.10;50.80;;;;;;5019478;28;19936;-55
2022/04/08 13:03:43;;;;;;;;;;;19.10;50.80;;;;;;5039934;28;19916;-54
2022/04/08 13:06:09;;;;;;;;;;;19.10;50.70;;;;;;5029468;28;19963;-52
2022/04/08 13:08:34;;;;;;;;;;;19.10;50.70;;;;;;5025213;28;19921;-53
2022/04/08 13:11:01;;;;;;;;;;;19.10;50.70;;;;;;5024486;28;19919;-54
2022/04/08 13:13:26;;;;;;;;;;;19.10;50.60;;;;;;5026097;28;19945;-53
2022/04/08 13:15:51;;;;;;;;;;;19.10;50.60;;;;;;5025641;28;19913;-54
2022/04/08 13:18:17;;;;;;;;;;;19.20;50.70;;;;;;5025453;28;19917;-51
2022/04/08 13:20:43;;;;;;;;;;;19.10;50.60;;;;;;5025473;28;19913;-55
2022/04/08 13:23:09;;;;;;;;;;;19.20;50.80;;;;;;5026246;28;20028;-57
2022/04/08 13:25:34;;;;;;;;;;;19.10;50.70;;;;;;5036407;28;20406;-56
2022/04/08 13:28:00;;;;;;;;;;;19.10;50.70;;;;;;5025330;28;19913;-55
2022/04/08 13:30:25;;;;;;;;;;;19.10;50.70;;;;;;5031625;28;20468;-53
2022/04/08 13:32:52;;;;;;;;;;;19.10;50.70;;;;;;5044621;28;19943;-55
2022/04/08 13:35:17;;;;;;;;;;;19.10;50.70;;;;;;5044888;28;19927;-56
2022/04/08 13:37:43;;;;;;;;;;;19.10;50.80;;;;;;5045044;28;20305;-53
2022/04/08 13:40:08;;;;;;;;;;;19.10;50.70;;;;;;5045348;28;19917;-56
2022/04/08 13:42:34;;;;;;;;;;;19.10;50.80;;;;;;5045225;28;19925;-54
2022/04/08 13:44:59;;;;;;;;;;;19.10;50.70;;;;;;5044675;28;19917;-55
2022/04/08 13:47:25;;;;;;;;;;;19.10;50.80;;;;;;5044708;28;19913;-54
2022/04/08 13:49:50;;;;;;;;;;;19.10;50.70;;;;;;5044528;28;19920;-52
2022/04/08 13:52:16;;;;;;;;;;;19.10;50.70;;;;;;5044986;28;19913;-56
2022/04/08 13:54:41;;;;;;;;;;;19.10;50.80;;;;;;5045422;28;19912;-56
2022/04/08 13:57:07;;;;;;;;;;;19.10;50.80;;;;;;5044758;28;19916;-52
2022/04/08 13:59:32;;;;;;;;;;;19.10;50.80;;;;;;5044740;28;19920;-55
2022/04/08 14:01:57;;;;;;;;;;;19.10;50.80;;;;;;5044731;28;20583;-54
2022/04/08 14:04:23;;;;;;;;;;;19.10;50.80;;;;;;5044982;28;20035;-56
2022/04/08 14:06:48;;;;;;;;;;;19.10;50.70;;;;;;5044824;28;19920;-54
2022/04/08 14:09:14;;;;;;;;;;;19.10;50.70;;;;;;5044488;28;19912;-55